Time;durP1;ratioP1;P1;durP2;ratioP2;P2;SDS_P1;SDS_P2;PMS_P1;PMS_P2;Temp;Humidity;BMP_temperature;BMP_pressure;BME280_temperature;BME280_humidity;BME280_pressure;Samples;Min_cycle;Max_cycle;Signal;HPM_P1;HPM_P2
2021/01/21 00:02:23;;;;;;;5.30;2.50;;;7.40;99.90;;;;;;4979993;28;20175;-82
2021/01/21 00:04:48;;;;;;;2.63;1.87;;;7.40;99.90;;;;;;4980172;28;20198;-81
2021/01/21 00:07:14;;;;;;;2.60;2.10;;;7.40;99.90;;;;;;4963071;28;20562;-82
2021/01/21 00:09:40;;;;;;;3.25;1.90;;;7.40;99.90;;;;;;4980212;28;20181;-81
2021/01/21 00:12:09;;;;;;;4.70;2.30;;;7.40;99.90;;;;;;4980999;28;20207;-81
2021/01/21 00:14:35;;;;;;;3.10;2.08;;;7.40;99.90;;;;;;4986290;28;20167;-80
2021/01/21 00:17:00;;;;;;;4.03;2.00;;;7.40;99.90;;;;;;4985423;28;20269;-81
2021/01/21 00:19:29;;;;;;;3.73;1.87;;;7.40;99.90;;;;;;4968506;28;20918;-82
2021/01/21 00:21:55;;;;;;;4.40;2.42;;;7.40;99.90;;;;;;4963676;28;20597;-82
2021/01/21 00:24:21;;;;;;;2.20;1.90;;;7.30;99.90;;;;;;4979938;28;20229;-82
2021/01/21 00:26:46;;;;;;;2.30;1.87;;;7.30;99.90;;;;;;4997002;28;20202;-81
2021/01/21 00:29:12;;;;;;;3.57;2.00;;;7.30;99.90;;;;;;4963204;28;20179;-82
2021/01/21 00:31:38;;;;;;;3.27;1.80;;;7.30;99.90;;;;;;4996878;28;20972;-83
2021/01/21 00:34:07;;;;;;;2.23;1.97;;;7.30;99.90;;;;;;4979102;28;20179;-82
2021/01/21 00:36:32;;;;;;;5.20;2.42;;;7.30;99.90;;;;;;4996354;28;20198;-83
2021/01/21 00:38:59;;;;;;;3.07;2.00;;;7.20;99.90;;;;;;4963745;28;20170;-82
2021/01/21 00:41:25;;;;;;;3.42;2.05;;;7.20;99.90;;;;;;4996357;28;20174;-82
2021/01/21 00:43:50;;;;;;;3.23;1.77;;;7.20;99.90;;;;;;4979708;28;20278;-82
2021/01/21 00:46:16;;;;;;;3.50;2.60;;;7.10;99.90;;;;;;4979489;28;20565;-82
2021/01/21 00:48:42;;;;;;;3.43;2.43;;;7.10;99.90;;;;;;4963969;28;20186;-82
2021/01/21 00:51:08;;;;;;;3.42;2.00;;;7.20;99.90;;;;;;4996237;28;20201;-83
2021/01/21 00:53:34;;;;;;;3.30;2.30;;;7.20;99.90;;;;;;4963053;28;20171;-82
2021/01/21 00:56:00;;;;;;;4.93;2.13;;;7.20;99.90;;;;;;4996582;28;20250;-82
2021/01/21 00:58:25;;;;;;;3.20;2.17;;;7.10;99.90;;;;;;4964306;28;20179;-81
2021/01/21 01:00:51;;;;;;;5.20;1.80;;;7.10;99.90;;;;;;4965042;28;20179;-82
2021/01/21 01:03:20;;;;;;;2.40;1.93;;;7.10;99.90;;;;;;4998826;28;20178;-82
2021/01/21 01:05:45;;;;;;;2.20;2.00;;;7.10;99.90;;;;;;4997932;28;20276;-83
2021/01/21 01:08:11;;;;;;;4.37;2.37;;;7.10;99.90;;;;;;4965705;28;20179;-82
2021/01/21 01:10:36;;;;;;;3.73;2.17;;;7.10;99.90;;;;;;4967735;28;20209;-82
2021/01/21 01:13:03;;;;;;;2.40;1.93;;;7.00;99.90;;;;;;4966911;28;20167;-82
2021/01/21 01:15:32;;;;;;;2.53;1.63;;;7.00;99.90;;;;;;5001270;28;20206;-82
2021/01/21 01:17:58;;;;;;;2.70;1.92;;;7.00;99.90;;;;;;4983304;28;20178;-81
2021/01/21 01:20:24;;;;;;;2.80;1.90;;;7.10;99.90;;;;;;5002416;28;20550;-82
2021/01/21 01:22:51;;;;;;;2.10;1.90;;;7.10;99.90;;;;;;4982834;28;20187;-81
2021/01/21 01:25:17;;;;;;;2.00;1.70;;;7.10;99.90;;;;;;4966618;28;20218;-82
2021/01/21 01:27:43;;;;;;;2.17;1.75;;;7.20;99.90;;;;;;4998754;28;20677;-82
2021/01/21 01:30:13;;;;;;;2.73;1.47;;;7.10;99.90;;;;;;4975226;28;20175;-81
2021/01/21 01:32:39;;;;;;;4.45;1.95;;;7.20;99.90;;;;;;4982783;28;20175;-81
2021/01/21 01:35:05;;;;;;;2.40;1.90;;;7.20;99.90;;;;;;4982856;28;20201;-80
2021/01/21 01:37:31;;;;;;;3.95;2.10;;;7.20;99.90;;;;;;4983169;28;20171;-80
2021/01/21 01:39:56;;;;;;;2.43;1.90;;;7.20;99.90;;;;;;4967131;28;20197;-80
2021/01/21 01:42:22;;;;;;;3.07;1.63;;;7.30;99.90;;;;;;4984165;28;20586;-80
2021/01/21 01:44:48;;;;;;;4.97;2.10;;;7.30;99.90;;;;;;4993067;28;20198;-82
2021/01/21 01:47:15;;;;;;;1.73;1.43;;;7.30;99.90;;;;;;4990328;28;20441;-80
2021/01/21 01:49:41;;;;;;;2.10;1.80;;;7.30;99.90;;;;;;5007567;28;20174;-80
2021/01/21 01:52:07;;;;;;;2.70;1.90;;;7.30;99.90;;;;;;4967014;28;20640;-80
2021/01/21 01:54:32;;;;;;;3.57;1.60;;;7.40;99.90;;;;;;4982138;28;20449;-80
2021/01/21 01:57:01;;;;;;;1.80;1.37;;;7.40;99.90;;;;;;5000710;28;20607;-80
2021/01/21 01:59:27;;;;;;;2.33;1.55;;;7.40;99.90;;;;;;4998398;28;20518;-80
2021/01/21 02:01:54;;;;;;;2.67;1.42;;;7.40;99.90;;;;;;4979233;28;20335;-80
2021/01/21 02:04:20;;;;;;;2.20;1.50;;;7.40;99.90;;;;;;4970337;28;20575;-80
2021/01/21 02:06:45;;;;;;;2.28;1.60;;;7.40;99.90;;;;;;4998706;28;20242;-80
2021/01/21 02:09:11;;;;;;;3.13;2.10;;;7.40;99.90;;;;;;4965072;28;20179;-81
2021/01/21 02:11:42;;;;;;;4.53;2.13;;;7.50;99.90;;;;;;4998274;28;20214;-80
2021/01/21 02:14:27;;;;;;;4.90;1.90;;;7.50;99.90;;;;;;4998696;28;20255;-80
2021/01/21 02:16:58;;;;;;;2.22;1.50;;;7.40;99.90;;;;;;4998060;28;20181;-80
2021/01/21 02:20:02;;;;;;;2.42;1.58;;;7.50;99.90;;;;;;4998123;28;20542;-80
2021/01/21 02:23:06;;;;;;;3.15;1.38;;;7.50;99.90;;;;;;4998497;28;20163;-80
2021/01/21 02:25:50;;;;;;;3.03;1.60;;;7.50;99.90;;;;;;4981497;28;20191;-81
2021/01/21 02:28:46;;;;;;;1.63;1.30;;;7.50;99.90;;;;;;4998693;28;20155;-81
2021/01/21 02:31:24;;;;;;;2.85;1.70;;;7.50;99.90;;;;;;4982220;28;20201;-81
2021/01/21 02:33:59;;;;;;;4.35;1.67;;;7.50;99.90;;;;;;4998338;28;20376;-81
2021/01/21 02:36:32;;;;;;;3.55;1.73;;;7.50;99.90;;;;;;4980945;28;20197;-81
2021/01/21 02:39:00;;;;;;;1.65;1.50;;;7.50;99.90;;;;;;4998962;28;20160;-81
2021/01/21 02:41:26;;;;;;;2.35;1.40;;;7.50;99.90;;;;;;4980313;28;20182;-81
2021/01/21 02:43:53;;;;;;;2.20;1.60;;;7.50;99.90;;;;;;4980880;28;20270;-80
2021/01/21 02:46:20;;;;;;;3.38;1.70;;;7.50;99.90;;;;;;4981066;28;20222;-81
2021/01/21 02:48:46;;;;;;;3.17;2.28;;;7.50;99.90;;;;;;4998212;28;20175;-81
2021/01/21 02:51:23;;;;;;;2.70;1.42;;;7.50;99.90;;;;;;4964483;28;20298;-81
2021/01/21 02:54:17;;;;;;;2.13;1.85;;;7.50;99.90;;;;;;4997908;28;20170;-80
2021/01/21 02:57:33;;;;;;;4.68;1.95;;;7.50;99.90;;;;;;4980447;28;20195;-81
2021/01/21 03:00:04;;;;;;;1.95;1.35;;;7.50;99.90;;;;;;4964735;28;20197;-81
2021/01/21 03:02:34;;;;;;;2.33;1.60;;;7.50;99.90;;;;;;4981418;28;20426;-81
2021/01/21 03:05:02;;;;;;;3.00;1.75;;;7.50;99.90;;;;;;4982249;28;20484;-81
2021/01/21 03:07:32;;;;;;;1.60;1.35;;;7.50;99.90;;;;;;4981357;28;20202;-81
2021/01/21 03:09:58;;;;;;;3.28;2.38;;;7.50;99.90;;;;;;4998065;28;20181;-81
2021/01/21 03:12:27;;;;;;;3.60;1.83;;;7.50;99.90;;;;;;4979596;28;20285;-80
2021/01/21 03:14:54;;;;;;;2.03;1.85;;;7.50;99.90;;;;;;4997463;28;20430;-80
2021/01/21 03:17:24;;;;;;;1.98;1.15;;;7.50;99.90;;;;;;4997831;28;20202;-81
2021/01/21 03:19:51;;;;;;;1.88;1.42;;;7.50;99.90;;;;;;5002829;28;20368;-80
2021/01/21 03:22:17;;;;;;;2.17;1.55;;;7.50;99.90;;;;;;5001855;28;20654;-81
2021/01/21 03:24:43;;;;;;;2.33;1.33;;;7.50;99.90;;;;;;4982680;28;20203;-80
2021/01/21 03:27:08;;;;;;;2.17;1.70;;;7.50;99.90;;;;;;4980936;28;20191;-80
2021/01/21 03:29:34;;;;;;;2.60;1.40;;;7.50;99.90;;;;;;4965241;28;20505;-81
2021/01/21 03:32:00;;;;;;;7.63;1.80;;;7.50;99.90;;;;;;4979857;28;20266;-81
2021/01/21 03:34:25;;;;;;;2.07;1.47;;;7.50;99.90;;;;;;4998622;28;20166;-80
2021/01/21 03:36:51;;;;;;;1.83;1.50;;;7.50;99.90;;;;;;4964738;28;20970;-80
2021/01/21 03:39:17;;;;;;;3.90;1.47;;;7.60;99.90;;;;;;4948446;28;20179;-80
2021/01/21 03:41:43;;;;;;;3.45;1.77;;;7.60;99.90;;;;;;4997814;28;20666;-80
2021/01/21 03:44:08;;;;;;;2.47;1.73;;;7.50;99.90;;;;;;4961528;28;20285;-80
2021/01/21 03:46:34;;;;;;;5.57;1.87;;;7.50;99.90;;;;;;4963543;28;20206;-80
2021/01/21 03:49:00;;;;;;;2.10;1.50;;;7.50;99.90;;;;;;4970599;28;20610;-80
2021/01/21 03:51:26;;;;;;;3.10;1.80;;;7.50;99.90;;;;;;4979802;28;20242;-80
2021/01/21 03:53:51;;;;;;;3.00;1.83;;;7.50;99.90;;;;;;4998257;28;20413;-80
2021/01/21 03:56:17;;;;;;;4.70;1.60;;;7.40;99.90;;;;;;4965447;28;20631;-81
2021/01/21 03:58:43;;;;;;;2.13;1.93;;;7.40;99.90;;;;;;4964682;28;20215;-81
2021/01/21 04:01:09;;;;;;;3.53;1.75;;;7.40;99.90;;;;;;4981149;28;20182;-81
2021/01/21 04:03:35;;;;;;;1.90;1.50;;;7.40;99.90;;;;;;4964161;28;20175;-81
2021/01/21 04:06:01;;;;;;;2.10;1.55;;;7.40;99.90;;;;;;4980640;28;20210;-82
2021/01/21 04:08:29;;;;;;;4.90;1.90;;;7.30;99.90;;;;;;4997494;28;20631;-81
2021/01/21 04:10:55;;;;;;;2.65;1.75;;;7.40;99.90;;;;;;4997884;28;20194;-81
2021/01/21 04:13:20;;;;;;;3.63;2.10;;;7.40;99.90;;;;;;4997201;28;20250;-81
2021/01/21 04:15:47;;;;;;;3.73;2.43;;;7.40;99.90;;;;;;4980174;28;20191;-81
2021/01/21 04:18:13;;;;;;;5.72;2.50;;;7.40;99.90;;;;;;4963238;28;20205;-81
2021/01/21 04:20:39;;;;;;;3.15;1.80;;;7.40;99.90;;;;;;4996551;28;20175;-80
2021/01/21 04:23:05;;;;;;;2.43;1.80;;;7.40;99.90;;;;;;4996321;28;20184;-80
2021/01/21 04:25:30;;;;;;;2.83;1.60;;;7.40;99.90;;;;;;4962813;28;20207;-81
2021/01/21 04:27:56;;;;;;;2.10;1.60;;;7.40;99.90;;;;;;4963597;28;20604;-81
2021/01/21 04:30:22;;;;;;;2.93;1.37;;;7.50;99.90;;;;;;4996650;28;20566;-80
2021/01/21 04:32:48;;;;;;;2.63;1.60;;;7.50;99.90;;;;;;4996699;28;20558;-81
2021/01/21 04:35:14;;;;;;;2.90;1.30;;;7.50;99.90;;;;;;4979210;28;20210;-81
2021/01/21 04:37:39;;;;;;;1.73;1.37;;;7.50;99.90;;;;;;4979428;28;20618;-81
2021/01/21 04:40:06;;;;;;;2.93;1.97;;;7.60;99.90;;;;;;4979113;28;20427;-81
2021/01/21 04:42:35;;;;;;;2.42;1.88;;;7.60;99.90;;;;;;4996819;28;20185;-81
2021/01/21 04:45:01;;;;;;;3.20;1.70;;;7.60;99.90;;;;;;4967200;28;20199;-81
2021/01/21 04:47:28;;;;;;;1.80;1.55;;;7.60;99.90;;;;;;4983156;28;20316;-80
2021/01/21 04:49:56;;;;;;;3.83;1.65;;;7.70;99.90;;;;;;4967003;28;20182;-82
2021/01/21 04:52:22;;;;;;;3.50;2.40;;;7.70;99.90;;;;;;4983167;28;20673;-81
2021/01/21 04:54:56;;;;;;;1.85;1.27;;;7.60;99.90;;;;;;4983217;28;20245;-81
2021/01/21 04:57:32;;;;;;;3.55;1.73;;;7.50;99.90;;;;;;4983365;28;20224;-81
2021/01/21 04:59:59;;;;;;;2.95;1.75;;;7.50;99.90;;;;;;4982670;28;20198;-81
2021/01/21 05:02:27;;;;;;;4.80;1.80;;;7.50;99.90;;;;;;5000267;28;20251;-80
2021/01/21 05:04:54;;;;;;;3.65;2.08;;;7.50;99.90;;;;;;4984780;28;20197;-80
2021/01/21 05:07:20;;;;;;;3.33;2.03;;;7.50;99.90;;;;;;4982714;28;20197;-81
2021/01/21 05:09:46;;;;;;;4.00;2.35;;;7.50;99.90;;;;;;4982250;28;20194;-81
2021/01/21 05:12:12;;;;;;;2.67;1.90;;;7.50;99.90;;;;;;4999549;28;20285;-81
2021/01/21 05:14:38;;;;;;;3.17;1.80;;;7.50;99.90;;;;;;4982161;28;20441;-80
2021/01/21 05:17:04;;;;;;;2.53;1.90;;;7.50;99.90;;;;;;4965599;28;20179;-80
2021/01/21 05:19:32;;;;;;;3.05;1.98;;;7.50;99.90;;;;;;4965535;28;20179;-81
2021/01/21 05:22:00;;;;;;;3.63;1.88;;;7.50;99.90;;;;;;4981396;28;20229;-80
2021/01/21 05:24:26;;;;;;;5.75;2.70;;;7.50;99.90;;;;;;4999138;28;20178;-81
2021/01/21 05:26:53;;;;;;;5.87;2.60;;;7.50;99.90;;;;;;4978400;28;20720;-80
2021/01/21 05:29:20;;;;;;;5.75;2.90;;;7.50;99.90;;;;;;4981497;28;20520;-81
2021/01/21 05:31:46;;;;;;;2.92;1.90;;;7.50;99.90;;;;;;5002849;28;20198;-81
2021/01/21 05:34:17;;;;;;;5.57;3.17;;;7.50;99.90;;;;;;4998116;28;20182;-80
2021/01/21 05:36:44;;;;;;;2.85;1.90;;;7.60;99.90;;;;;;4998937;28;20187;-80
2021/01/21 05:39:09;;;;;;;3.30;2.13;;;7.60;99.90;;;;;;4999055;28;20257;-80
2021/01/21 05:41:37;;;;;;;6.63;2.80;;;7.60;99.90;;;;;;4998446;28;20555;-80
2021/01/21 05:44:04;;;;;;;4.63;2.40;;;7.60;99.90;;;;;;4965437;28;20185;-79
2021/01/21 05:46:31;;;;;;;4.95;3.10;;;7.50;99.90;;;;;;4981204;28;20210;-80
2021/01/21 05:48:57;;;;;;;9.45;3.20;;;7.60;99.90;;;;;;4999442;28;20162;-80
2021/01/21 05:51:24;;;;;;;3.85;2.60;;;7.60;99.90;;;;;;4980974;28;20203;-80
2021/01/21 05:53:53;;;;;;;7.18;2.78;;;7.60;99.90;;;;;;4998607;28;20651;-80
2021/01/21 05:56:19;;;;;;;5.28;2.70;;;7.60;99.90;;;;;;4980497;28;20214;-80
2021/01/21 05:58:45;;;;;;;4.80;3.05;;;7.60;99.90;;;;;;4981316;28;20177;-80
2021/01/21 06:01:12;;;;;;;5.43;3.65;;;7.60;99.90;;;;;;4964478;28;20175;-80
2021/01/21 06:03:37;;;;;;;5.50;3.65;;;7.60;99.90;;;;;;4997856;28;20183;-81
2021/01/21 06:06:07;;;;;;;5.90;2.67;;;7.60;99.90;;;;;;4998886;28;20211;-80
2021/01/21 06:08:40;;;;;;;3.65;2.65;;;7.60;99.90;;;;;;4980086;28;20777;-80
2021/01/21 06:11:10;;;;;;;5.07;2.63;;;7.60;99.90;;;;;;4996941;28;20207;-81
2021/01/21 06:13:42;;;;;;;5.40;3.20;;;7.60;99.90;;;;;;4997561;28;20175;-80
2021/01/21 06:16:09;;;;;;;3.85;3.03;;;7.60;99.90;;;;;;4963801;28;20195;-80
2021/01/21 06:18:35;;;;;;;4.88;3.10;;;7.60;99.90;;;;;;4979641;28;20242;-80
2021/01/21 06:21:09;;;;;;;3.92;3.33;;;7.70;99.90;;;;;;4979624;28;20646;-80
2021/01/21 06:23:37;;;;;;;3.85;3.47;;;7.70;99.90;;;;;;4998943;28;20603;-80
2021/01/21 06:26:05;;;;;;;5.93;3.33;;;7.70;99.90;;;;;;4998574;28;20307;-80
2021/01/21 06:28:32;;;;;;;6.00;4.20;;;7.60;99.90;;;;;;4981127;28;20306;-81
2021/01/21 06:30:59;;;;;;;2.50;2.10;;;7.60;99.90;;;;;;4971436;28;20211;-80
2021/01/21 06:33:35;;;;;;;5.82;2.75;;;7.60;99.90;;;;;;4976563;28;20195;-80
2021/01/21 06:36:06;;;;;;;4.93;3.10;;;7.70;99.90;;;;;;4961337;28;20195;-80
2021/01/21 06:38:48;;;;;;;4.82;3.17;;;7.70;99.90;;;;;;4953345;29;20185;-80
2021/01/21 06:41:19;;;;;;;4.97;3.00;;;7.70;99.90;;;;;;4960073;28;20728;-80
2021/01/21 06:43:46;;;;;;;3.92;2.72;;;7.80;99.90;;;;;;4959048;28;20177;-82
2021/01/21 06:46:15;;;;;;;3.55;3.13;;;7.80;99.90;;;;;;4949187;28;20210;-82
2021/01/21 06:48:47;;;;;;;12.43;2.88;;;7.80;99.90;;;;;;4978505;28;20250;-82
2021/01/21 06:51:13;;;;;;;3.35;2.60;;;7.80;99.90;;;;;;4960320;28;20192;-81
2021/01/21 06:53:49;;;;;;;3.55;3.00;;;7.90;99.90;;;;;;4978618;28;20202;-81
2021/01/21 06:56:15;;;;;;;5.03;3.28;;;7.80;99.90;;;;;;4961557;28;20195;-81
2021/01/21 06:58:53;;;;;;;9.43;3.00;;;7.90;99.90;;;;;;4978683;28;20701;-81
2021/01/21 07:01:35;;;;;;;5.05;2.35;;;7.90;99.90;;;;;;4959536;28;20257;-80
2021/01/21 07:04:03;;;;;;;3.70;2.22;;;7.90;99.90;;;;;;4958886;28;20175;-81
2021/01/21 07:07:03;;;;;;;4.20;2.60;;;8.00;99.90;;;;;;4960257;28;20223;-81
2021/01/21 07:09:29;;;;;;;4.85;2.88;;;8.10;99.90;;;;;;4975355;28;20175;-81
2021/01/21 07:12:01;;;;;;;5.70;2.28;;;8.10;99.90;;;;;;4953591;28;20211;-81
2021/01/21 07:14:34;;;;;;;3.17;2.35;;;8.10;99.90;;;;;;4956916;28;20188;-81
2021/01/21 07:17:05;;;;;;;4.57;2.72;;;8.20;99.90;;;;;;4965131;28;20262;-81
2021/01/21 07:19:38;;;;;;;2.60;1.98;;;8.20;99.90;;;;;;4977756;28;20246;-81
2021/01/21 07:22:23;;;;;;;2.75;1.83;;;8.30;99.90;;;;;;4977370;28;20176;-81
2021/01/21 07:24:56;;;;;;;4.82;1.60;;;8.30;99.90;;;;;;4976729;28;20198;-80
2021/01/21 07:27:24;;;;;;;3.65;2.47;;;8.40;99.90;;;;;;4958402;28;20171;-80
2021/01/21 07:29:50;;;;;;;3.38;1.70;;;8.40;99.90;;;;;;4942763;29;20184;-79
2021/01/21 07:32:27;;;;;;;10.83;2.20;;;8.50;99.90;;;;;;4957022;28;20218;-81
2021/01/21 07:34:55;;;;;;;4.18;1.83;;;8.50;99.90;;;;;;4958642;28;20403;-81
2021/01/21 07:37:29;;;;;;;2.80;1.60;;;8.60;99.90;;;;;;4960202;28;20529;-82
2021/01/21 07:40:02;;;;;;;2.35;1.58;;;8.60;99.90;;;;;;4979778;28;20198;-82
2021/01/21 07:42:36;;;;;;;3.13;2.40;;;8.60;99.90;;;;;;4978589;28;20171;-82
2021/01/21 07:45:33;;;;;;;2.33;1.80;;;8.70;99.90;;;;;;4961219;28;20198;-82
2021/01/21 07:48:18;;;;;;;3.65;2.10;;;8.70;99.90;;;;;;4961718;28;20168;-82
2021/01/21 07:50:48;;;;;;;5.78;2.13;;;8.70;99.90;;;;;;4962047;28;20202;-82
2021/01/21 07:53:22;;;;;;;4.55;2.00;;;8.70;99.90;;;;;;4946321;28;20188;-81
2021/01/21 07:55:49;;;;;;;3.13;2.10;;;8.70;99.90;;;;;;4952972;28;20230;-81
2021/01/21 07:58:27;;;;;;;5.35;4.55;;;8.80;99.90;;;;;;4965442;28;20187;-84
2021/01/21 08:01:03;;;;;;;6.07;3.40;;;9.30;99.90;;;;;;4970173;28;20254;-81
2021/01/21 08:03:31;;;;;;;4.68;2.80;;;9.50;99.90;;;;;;4969650;28;20189;-83
2021/01/21 08:06:04;;;;;;;5.35;2.78;;;9.60;99.90;;;;;;4971163;28;20219;-83
2021/01/21 08:08:29;;;;;;;5.20;2.40;;;9.70;99.90;;;;;;4970776;28;20209;-82
2021/01/21 08:11:14;;;;;;;3.70;2.80;;;9.90;99.90;;;;;;4955466;28;20641;-82
2021/01/21 08:13:42;;;;;;;2.35;1.85;;;10.00;99.90;;;;;;4969674;28;20186;-81
2021/01/21 08:16:13;;;;;;;2.50;2.25;;;9.90;99.90;;;;;;4970191;28;20195;-81
2021/01/21 08:18:46;;;;;;;4.72;2.15;;;9.90;99.90;;;;;;4972160;28;20186;-80
2021/01/21 08:21:25;;;;;;;3.92;1.65;;;10.00;99.90;;;;;;4982431;28;20254;-80
2021/01/21 08:24:01;;;;;;;6.35;2.13;;;9.90;99.90;;;;;;4972085;28;20438;-81
2021/01/21 08:26:31;;;;;;;3.00;1.70;;;9.70;99.90;;;;;;4962983;28;20439;-79
2021/01/21 08:28:58;;;;;;;3.58;2.65;;;9.70;99.90;;;;;;4971531;28;20262;-81
2021/01/21 08:31:44;;;;;;;6.57;2.65;;;9.70;99.90;;;;;;4968758;28;20191;-80
2021/01/21 08:34:19;;;;;;;1.88;1.35;;;9.70;99.90;;;;;;4952041;28;20178;-80
2021/01/21 08:36:45;;;;;;;4.63;2.00;;;9.60;99.90;;;;;;4964661;28;20222;-81
2021/01/21 08:39:12;;;;;;;3.13;2.00;;;9.70;99.90;;;;;;4985435;28;20176;-81
2021/01/21 08:41:50;;;;;;;2.75;1.67;;;9.70;99.90;;;;;;4991595;28;20411;-79
2021/01/21 08:44:17;;;;;;;2.97;1.75;;;9.70;99.90;;;;;;4967858;28;20171;-80
2021/01/21 08:46:55;;;;;;;3.67;1.73;;;9.70;99.90;;;;;;4964510;28;20278;-84
2021/01/21 08:49:23;;;;;;;3.53;2.00;;;9.70;99.90;;;;;;4947691;28;20179;-83
2021/01/21 08:52:09;;;;;;;3.80;2.08;;;9.70;99.90;;;;;;4953329;28;20757;-84
2021/01/21 08:54:35;;;;;;;2.58;1.60;;;9.70;99.90;;;;;;4983916;28;20613;-80
2021/01/21 08:57:12;;;;;;;2.17;1.67;;;9.70;99.90;;;;;;4961091;28;20175;-79
2021/01/21 08:59:39;;;;;;;5.45;2.53;;;9.80;99.90;;;;;;4962412;28;20194;-79
2021/01/21 09:02:08;;;;;;;3.15;2.00;;;9.70;99.90;;;;;;4979684;28;20172;-80
2021/01/21 09:04:36;;;;;;;7.30;2.00;;;9.70;99.90;;;;;;4959522;28;20175;-79
2021/01/21 09:07:02;;;;;;;2.90;1.80;;;9.80;99.90;;;;;;4959599;28;20215;-79
2021/01/21 09:09:37;;;;;;;10.68;1.70;;;9.80;99.90;;;;;;4983256;28;20172;-80
2021/01/21 09:12:20;;;;;;;5.95;2.30;;;9.80;99.90;;;;;;4981064;28;20206;-80
2021/01/21 09:15:00;;;;;;;4.53;1.95;;;9.80;99.90;;;;;;4962199;28;20222;-79
2021/01/21 09:17:32;;;;;;;3.15;1.67;;;9.90;99.90;;;;;;4975969;28;20178;-79
2021/01/21 09:19:59;;;;;;;2.42;1.55;;;10.00;99.90;;;;;;4962200;28;20179;-80
2021/01/21 09:22:36;;;;;;;3.65;2.38;;;10.00;99.90;;;;;;4977139;28;20176;-78
2021/01/21 09:25:07;;;;;;;5.53;2.08;;;10.10;99.90;;;;;;4978969;28;20536;-80
2021/01/21 09:27:35;;;;;;;2.75;1.60;;;10.20;99.90;;;;;;4963173;28;20710;-80
2021/01/21 09:30:04;;;;;;;2.88;1.90;;;10.20;99.90;;;;;;4977974;28;20191;-80
2021/01/21 09:32:33;;;;;;;2.58;1.67;;;10.30;99.90;;;;;;4980117;28;20203;-80
2021/01/21 09:35:05;;;;;;;3.00;1.73;;;10.40;99.90;;;;;;4962411;28;20198;-80
2021/01/21 09:37:36;;;;;;;2.95;2.20;;;10.40;99.90;;;;;;4981100;28;20168;-81
2021/01/21 09:40:07;;;;;;;2.40;1.75;;;10.50;99.90;;;;;;4984628;28;20171;-81
2021/01/21 09:42:33;;;;;;;2.35;1.85;;;10.60;99.90;;;;;;4967562;28;20179;-79
2021/01/21 09:44:59;;;;;;;2.93;1.60;;;10.70;99.90;;;;;;4982100;28;20211;-80
2021/01/21 09:47:26;;;;;;;2.70;2.00;;;10.70;99.90;;;;;;4966785;28;20458;-78
2021/01/21 09:49:52;;;;;;;3.08;1.90;;;10.70;99.90;;;;;;4983385;28;20175;-79
2021/01/21 09:52:17;;;;;;;2.05;1.30;;;10.80;99.90;;;;;;4979252;28;20218;-79
2021/01/21 09:54:43;;;;;;;2.93;1.77;;;10.80;99.90;;;;;;4963331;28;20583;-79
2021/01/21 09:57:10;;;;;;;3.63;2.07;;;10.80;99.90;;;;;;4980015;28;20184;-80
2021/01/21 09:59:36;;;;;;;2.10;1.52;;;10.90;99.90;;;;;;4970102;28;20499;-80
2021/01/21 10:02:02;;;;;;;3.55;2.10;;;10.90;99.90;;;;;;4968330;28;20206;-80
2021/01/21 10:04:28;;;;;;;3.20;1.30;;;11.00;99.90;;;;;;4965956;28;20179;-79
2021/01/21 10:06:53;;;;;;;5.60;2.80;;;11.00;99.90;;;;;;4983971;28;20495;-80
2021/01/21 10:09:22;;;;;;;2.50;2.03;;;11.00;99.90;;;;;;4965871;28;20238;-80
2021/01/21 10:11:51;;;;;;;1.77;1.42;;;11.00;99.00;;;;;;4948793;28;20208;-81
2021/01/21 10:14:19;;;;;;;5.13;2.00;;;11.00;98.80;;;;;;4964640;29;20211;-81
2021/01/21 10:16:48;;;;;;;2.15;1.55;;;11.10;99.30;;;;;;4965137;28;20560;-81
2021/01/21 10:19:14;;;;;;;2.88;2.28;;;11.10;99.30;;;;;;4992297;28;20183;-83
2021/01/21 10:21:39;;;;;;;4.33;2.00;;;11.10;99.90;;;;;;4974088;28;20183;-81
2021/01/21 10:24:11;;;;;;;3.77;2.40;;;11.10;98.90;;;;;;4973282;28;20203;-83
2021/01/21 10:26:36;;;;;;;2.33;1.40;;;11.10;99.60;;;;;;4980440;28;20242;-80
2021/01/21 10:29:02;;;;;;;3.93;2.03;;;11.10;99.90;;;;;;4977228;28;20191;-81
2021/01/21 10:31:35;;;;;;;4.20;1.70;;;11.10;98.90;;;;;;4977848;28;20207;-82
2021/01/21 10:34:01;;;;;;;1.83;1.65;;;11.20;98.40;;;;;;4960311;28;20191;-81
2021/01/21 10:36:27;;;;;;;3.33;2.15;;;11.20;98.40;;;;;;4957303;28;20243;-81
2021/01/21 10:38:52;;;;;;;3.87;1.80;;;11.20;99.00;;;;;;4942234;28;20173;-79
2021/01/21 10:41:18;;;;;;;3.10;1.60;;;11.20;98.50;;;;;;4924980;29;20184;-81
2021/01/21 10:43:44;;;;;;;3.17;1.80;;;11.20;98.90;;;;;;4941509;29;20214;-80
2021/01/21 10:46:09;;;;;;;4.07;1.73;;;11.20;99.10;;;;;;4971608;28;20767;-80
2021/01/21 10:48:35;;;;;;;2.43;1.60;;;11.30;99.30;;;;;;4977767;28;20183;-80
2021/01/21 10:51:01;;;;;;;3.77;1.70;;;11.40;98.10;;;;;;4955438;28;20208;-81
2021/01/21 10:53:27;;;;;;;2.77;1.40;;;11.40;98.30;;;;;;4959470;28;20183;-80
2021/01/21 10:55:53;;;;;;;4.20;1.75;;;11.50;98.90;;;;;;4976486;28;20195;-81
2021/01/21 10:58:21;;;;;;;4.40;1.90;;;11.50;98.10;;;;;;4976755;28;20170;-80
2021/01/21 11:00:47;;;;;;;4.93;1.90;;;11.50;98.10;;;;;;4944408;28;20588;-81
2021/01/21 11:03:31;;;;;;;3.10;2.15;;;11.60;98.00;;;;;;4963919;28;20176;-81
2021/01/21 11:05:57;;;;;;;6.65;2.10;;;11.60;97.60;;;;;;4971153;28;20559;-81
2021/01/21 11:08:22;;;;;;;1.93;1.60;;;11.70;98.10;;;;;;4967317;28;20184;-80
2021/01/21 11:10:48;;;;;;;2.53;1.67;;;11.70;97.30;;;;;;4946903;29;20207;-80
2021/01/21 11:13:20;;;;;;;3.63;1.90;;;11.70;97.40;;;;;;4973880;28;20226;-78
2021/01/21 11:15:47;;;;;;;2.30;1.80;;;11.80;98.00;;;;;;4977371;28;20694;-80
2021/01/21 11:18:12;;;;;;;2.33;1.95;;;11.80;97.20;;;;;;4981708;28;20263;-79
2021/01/21 11:20:39;;;;;;;3.20;1.50;;;11.80;97.50;;;;;;4986033;28;20183;-81
2021/01/21 11:23:06;;;;;;;3.10;2.03;;;11.80;97.30;;;;;;4969500;28;20430;-81
2021/01/21 11:25:32;;;;;;;3.47;1.80;;;11.80;97.40;;;;;;4989646;28;20222;-80
2021/01/21 11:27:57;;;;;;;1.87;1.63;;;11.90;97.40;;;;;;4972323;28;20187;-81
2021/01/21 11:30:24;;;;;;;2.00;1.73;;;11.90;96.90;;;;;;4973965;28;20422;-81
2021/01/21 11:32:51;;;;;;;3.47;2.20;;;11.80;97.60;;;;;;4983764;28;20175;-81
2021/01/21 11:35:17;;;;;;;3.20;1.67;;;11.80;97.40;;;;;;4963626;28;20223;-80
2021/01/21 11:37:43;;;;;;;3.50;2.17;;;11.80;98.00;;;;;;4958508;28;20184;-80
2021/01/21 11:40:09;;;;;;;3.73;1.70;;;11.80;98.10;;;;;;4960104;28;20177;-80
2021/01/21 11:42:35;;;;;;;3.55;1.90;;;11.80;98.30;;;;;;4961262;28;20196;-79
2021/01/21 11:45:05;;;;;;;3.60;2.13;;;11.90;98.40;;;;;;4961157;28;20226;-79
2021/01/21 11:47:39;;;;;;;3.03;2.05;;;12.00;99.00;;;;;;4945964;28;20459;-79
2021/01/21 11:50:07;;;;;;;2.17;1.92;;;12.00;99.70;;;;;;4963041;28;20202;-79
2021/01/21 11:52:32;;;;;;;3.20;2.25;;;12.00;98.60;;;;;;4977005;28;20202;-79
2021/01/21 11:54:58;;;;;;;5.80;2.40;;;12.00;99.90;;;;;;4959860;28;20203;-80
2021/01/21 11:57:24;;;;;;;2.80;1.77;;;11.90;99.80;;;;;;4987246;28;20559;-80
2021/01/21 11:59:49;;;;;;;4.13;1.67;;;12.00;99.90;;;;;;4988809;28;20245;-80
2021/01/21 12:02:15;;;;;;;2.47;2.00;;;11.90;99.90;;;;;;4937288;28;20183;-80
2021/01/21 12:04:41;;;;;;;9.60;2.43;;;11.90;99.90;;;;;;4965289;28;20242;-81
2021/01/21 12:07:06;;;;;;;2.80;1.97;;;11.90;99.90;;;;;;4944173;29;20563;-80
2021/01/21 12:09:32;;;;;;;3.00;1.80;;;11.90;99.90;;;;;;4946500;28;20172;-81
2021/01/21 12:11:58;;;;;;;3.83;2.40;;;11.90;99.90;;;;;;4936507;28;20563;-80
2021/01/21 12:14:23;;;;;;;2.03;1.47;;;11.90;99.90;;;;;;4963336;28;20180;-81
2021/01/21 12:16:49;;;;;;;4.47;1.90;;;12.00;99.90;;;;;;4981786;28;20172;-81
2021/01/21 12:19:15;;;;;;;3.33;1.97;;;12.00;99.90;;;;;;4960917;29;20184;-81
2021/01/21 12:21:40;;;;;;;2.20;1.43;;;12.00;99.90;;;;;;4942451;29;20183;-80
2021/01/21 12:24:06;;;;;;;2.10;1.23;;;12.10;99.90;;;;;;4955404;28;20183;-80
2021/01/21 12:26:32;;;;;;;1.30;1.17;;;12.10;99.90;;;;;;4991818;28;20202;-80
2021/01/21 12:28:58;;;;;;;2.20;1.90;;;12.10;99.90;;;;;;4947616;28;20715;-79
2021/01/21 12:31:23;;;;;;;8.07;1.93;;;12.10;99.90;;;;;;4976586;28;20207;-80
2021/01/21 12:33:49;;;;;;;2.83;2.10;;;12.20;99.90;;;;;;4954577;29;20184;-78
2021/01/21 12:36:15;;;;;;;3.33;2.13;;;12.20;99.90;;;;;;4957519;28;20188;-80
2021/01/21 12:38:40;;;;;;;4.37;2.10;;;12.20;99.90;;;;;;4975100;28;20180;-78
2021/01/21 12:41:06;;;;;;;4.13;2.40;;;12.20;99.90;;;;;;4976978;28;20193;-80
2021/01/21 12:43:32;;;;;;;5.33;1.53;;;12.20;99.90;;;;;;4980380;28;20184;-80
2021/01/21 12:45:57;;;;;;;3.80;1.97;;;12.30;99.90;;;;;;4963308;28;20698;-80
2021/01/21 12:48:26;;;;;;;3.20;1.47;;;12.20;99.90;;;;;;4964170;28;20210;-81
2021/01/21 12:50:52;;;;;;;3.20;1.52;;;12.20;99.90;;;;;;4965548;29;20211;-80
2021/01/21 12:53:20;;;;;;;4.05;1.80;;;12.20;99.90;;;;;;4956733;29;20176;-80
2021/01/21 12:55:46;;;;;;;2.15;1.60;;;12.20;99.90;;;;;;4967455;28;20197;-80
2021/01/21 12:58:11;;;;;;;4.23;1.87;;;12.20;99.90;;;;;;4926404;29;20200;-80
2021/01/21 13:00:37;;;;;;;2.70;1.83;;;12.20;99.90;;;;;;4926295;29;20180;-79
2021/01/21 13:03:03;;;;;;;2.27;1.77;;;12.20;99.90;;;;;;4959088;29;20172;-80